Capitol Logistics 235


KPHX
Phoenix Sky Harbor International Airport
Phoenix, Arizona, US
KMIA
Miami International Airport
Miami, Florida, US

Route Details

Aircraft Information
Primary: Boeing 767-300BDSF
Backup: Not Available
Route Data
Distance: 1723nm
Sched. Duration: 4h 00m
Avg. Duration: 4h 02m (+2m)
Times Flown: 5
Recm'd Route: ECLPS1 PHASE ELP FST J86 LEV Y290 BLVNS Y290 BAGGS SSCOT5
Planned Altitude: 35,000ft
Origin Wx: KPHX 181551Z VRB03KT 10SM FEW250 14/04 A2999 RMK AO2 SLP148 T01390039
Dest. Wx: KMIA 181553Z 10013KT 10SM BKN025 BKN040 28/19 A3018 RMK AO2 SLP220 T02780194
Notes:

Financial History
Total Freight: 395,489lbs
Average Load: 79,098lbs/flt
Fuel Used: 212,512lbs
Avg. Fuel Used: 42,502lbs/flt
Fuel Expense: $172,135
Avg. Fuel Expense: $34,427
Avg. Fuel Cost: $0.81/lbs
Total Gross Income: $545,775
Pilot Pay: $905
Total Expenses: $59,204
Total Revenue: $310,506
Average Revenue: $109,154.96